createdAt,value
2023-07-03T00:00:04.322Z,2.20
2023-07-03T00:01:04.342Z,2.20
2023-07-03T00:02:04.330Z,2.20
2023-07-03T00:03:04.326Z,2.30
2023-07-03T00:04:04.297Z,2.40
2023-07-03T00:05:04.559Z,2.10
2023-07-03T00:06:04.272Z,2.50
2023-07-03T00:07:04.273Z,1.90
2023-07-03T00:08:04.226Z,2.50
2023-07-03T00:09:04.213Z,2.40
2023-07-03T00:10:04.207Z,2.40
2023-07-03T00:11:04.225Z,2.40
2023-07-03T00:12:04.183Z,1.90
2023-07-03T00:13:04.178Z,2.10
2023-07-03T00:14:04.163Z,2.00
2023-07-03T00:15:04.171Z,2.60
2023-07-03T00:16:04.212Z,2.50
2023-07-03T00:17:04.158Z,2.30
2023-07-03T00:18:04.175Z,2.00
2023-07-03T00:19:04.113Z,2.10
2023-07-03T00:20:04.097Z,1.80
2023-07-03T00:21:04.088Z,1.80
2023-07-03T00:22:04.107Z,2.30
2023-07-03T00:23:04.079Z,1.80
2023-07-03T00:24:04.049Z,2.00
2023-07-03T00:25:04.045Z,2.10
2023-07-03T00:26:04.029Z,1.50
2023-07-03T00:27:04.014Z,2.20
2023-07-03T00:28:04.036Z,1.90
2023-07-03T00:29:03.994Z,2.70
2023-07-03T00:30:03.980Z,2.20
2023-07-03T00:31:03.971Z,2.30
2023-07-03T00:32:04.012Z,1.70
2023-07-03T00:33:03.974Z,3.00
2023-07-03T00:34:03.941Z,2.10
2023-07-03T00:35:03.938Z,2.50
2023-07-03T00:36:03.909Z,2.30
2023-07-03T00:37:03.899Z,2.70
2023-07-03T00:38:03.910Z,1.90
2023-07-03T00:39:03.894Z,2.20
2023-07-03T00:40:03.871Z,2.50
2023-07-03T00:41:03.869Z,2.50
2023-07-03T00:42:03.851Z,2.40
2023-07-03T00:43:03.845Z,2.20
2023-07-03T00:44:03.854Z,2.40
2023-07-03T00:45:03.823Z,2.40
2023-07-03T00:46:03.827Z,2.50
2023-07-03T00:47:03.788Z,2.70
2023-07-03T00:48:03.788Z,2.00
2023-07-03T00:49:03.788Z,2.10
2023-07-03T00:50:03.770Z,2.50
2023-07-03T00:51:03.746Z,2.10
2023-07-03T00:52:03.735Z,2.10
2023-07-03T00:53:03.723Z,2.30
2023-07-03T00:54:03.715Z,2.10
2023-07-03T00:55:03.736Z,2.20
2023-07-03T00:56:03.708Z,2.20
2023-07-03T00:57:03.678Z,2.20
2023-07-03T00:58:03.665Z,1.90
2023-07-03T00:59:03.662Z,1.90
2023-07-03T01:00:03.647Z,2.10
2023-07-03T01:01:03.653Z,2.30
2023-07-03T01:02:03.678Z,2.10
2023-07-03T01:03:03.701Z,2.60
2023-07-03T01:04:03.598Z,2.00
2023-07-03T01:05:03.689Z,2.00
2023-07-03T01:06:03.645Z,2.20
2023-07-03T01:07:03.566Z,1.90
2023-07-03T01:08:03.548Z,2.70
2023-07-03T01:09:03.575Z,2.30
2023-07-03T01:10:03.541Z,2.30
2023-07-03T01:11:03.546Z,2.20
2023-07-03T01:12:03.510Z,2.60
2023-07-03T01:13:03.518Z,3.00
2023-07-03T01:14:03.488Z,2.40
2023-07-03T01:15:03.477Z,2.20
2023-07-03T01:16:03.503Z,2.10
2023-07-03T01:17:03.463Z,2.10
2023-07-03T01:18:03.443Z,2.20
2023-07-03T01:19:03.448Z,2.10
2023-07-03T01:20:03.436Z,2.30
2023-07-03T01:21:03.444Z,2.70
2023-07-03T01:22:03.410Z,2.30
2023-07-03T01:23:03.430Z,2.40
2023-07-03T01:24:03.388Z,2.60
2023-07-03T01:25:03.387Z,2.50
2023-07-03T01:26:03.351Z,2.40
2023-07-03T01:27:03.403Z,1.90
2023-07-03T01:28:03.357Z,2.40
2023-07-03T01:29:03.352Z,2.30
2023-07-03T01:30:03.321Z,2.60
2023-07-03T01:31:03.316Z,2.50
2023-07-03T01:32:03.300Z,2.10
2023-07-03T01:33:03.394Z,2.00
2023-07-03T01:34:03.270Z,2.30
2023-07-03T01:35:03.273Z,2.60
2023-07-03T01:36:03.264Z,2.50
2023-07-03T01:37:03.270Z,2.10
2023-07-03T01:38:03.223Z,2.30
2023-07-03T01:39:03.226Z,2.30
2023-07-03T01:40:03.206Z,2.10
2023-07-03T01:41:03.256Z,2.30
2023-07-03T01:42:03.203Z,2.20
2023-07-03T01:43:03.188Z,1.80
2023-07-03T01:44:03.170Z,2.20
2023-07-03T01:45:03.143Z,2.70
2023-07-03T01:46:03.206Z,2.40
2023-07-03T01:47:03.146Z,2.10
2023-07-03T01:48:03.228Z,1.90
2023-07-03T01:49:03.101Z,2.50
2023-07-03T01:50:03.086Z,2.20
2023-07-03T01:51:03.073Z,2.20
2023-07-03T01:52:03.069Z,2.60
2023-07-03T01:53:03.063Z,2.20
2023-07-03T01:54:03.083Z,1.90
2023-07-03T01:55:03.030Z,2.30
2023-07-03T01:56:03.022Z,1.70
2023-07-03T01:57:03.018Z,1.90
2023-07-03T01:58:03.058Z,2.00
2023-07-03T01:59:03.005Z,1.80
2023-07-03T02:00:02.994Z,2.60
2023-07-03T02:01:03.027Z,2.00
2023-07-03T02:02:02.991Z,2.20
2023-07-03T02:03:02.991Z,2.10
2023-07-03T02:04:02.942Z,2.20
2023-07-03T02:05:02.997Z,2.40
2023-07-03T02:06:02.914Z,1.90
2023-07-03T02:07:02.923Z,2.00
2023-07-03T02:08:02.885Z,1.70
2023-07-03T02:09:02.887Z,1.90
2023-07-03T02:10:02.893Z,2.00
2023-07-03T02:11:02.879Z,2.00
2023-07-03T02:12:02.843Z,2.50
2023-07-03T02:13:02.830Z,2.20
2023-07-03T02:14:02.815Z,2.40
2023-07-03T02:15:02.816Z,2.00
2023-07-03T02:16:02.821Z,2.20
2023-07-03T02:17:02.880Z,1.60
2023-07-03T02:18:02.838Z,2.00
2023-07-03T02:19:02.763Z,1.80
2023-07-03T02:20:02.769Z,1.60
2023-07-03T02:21:02.758Z,2.20
2023-07-03T02:22:02.762Z,2.10
2023-07-03T02:23:02.719Z,1.80
2023-07-03T02:24:02.704Z,2.00
2023-07-03T02:25:02.704Z,1.60
2023-07-03T02:26:02.693Z,2.10
2023-07-03T02:27:02.693Z,1.30
2023-07-03T02:28:02.669Z,1.80
2023-07-03T02:29:02.643Z,2.00
2023-07-03T02:30:02.658Z,2.00
2023-07-03T02:31:02.667Z,2.00
2023-07-03T02:32:02.639Z,1.70
2023-07-03T02:33:02.647Z,1.70
2023-07-03T02:34:02.591Z,1.90
2023-07-03T02:35:02.575Z,1.80
2023-07-03T02:36:02.575Z,1.50
2023-07-03T02:37:02.567Z,1.70
2023-07-03T02:38:02.578Z,1.70
2023-07-03T02:39:02.552Z,1.70
2023-07-03T02:40:02.537Z,1.60
2023-07-03T02:41:02.527Z,1.60
2023-07-03T02:42:02.502Z,1.80
2023-07-03T02:43:02.489Z,1.80
2023-07-03T02:44:02.538Z,1.40
2023-07-03T02:45:02.481Z,1.90
2023-07-03T02:46:02.460Z,1.40
2023-07-03T02:47:02.488Z,2.00
2023-07-03T02:48:02.517Z,1.80
2023-07-03T02:49:02.449Z,2.00
2023-07-03T02:50:02.449Z,1.50
2023-07-03T02:51:02.398Z,1.50
2023-07-03T02:52:02.420Z,1.90
2023-07-03T02:53:02.417Z,1.60
2023-07-03T02:54:02.367Z,1.90
2023-07-03T02:55:02.379Z,1.80
2023-07-03T02:56:02.352Z,1.70
2023-07-03T02:57:02.346Z,2.10
2023-07-03T02:58:02.318Z,1.70
2023-07-03T02:59:02.335Z,1.80
2023-07-03T03:00:02.312Z,1.30
2023-07-03T03:01:02.395Z,1.40
2023-07-03T03:02:02.288Z,1.80
2023-07-03T03:03:02.450Z,1.50
2023-07-03T03:04:02.370Z,1.40
2023-07-03T03:05:02.366Z,1.80
2023-07-03T03:06:02.273Z,2.20
2023-07-03T03:07:02.254Z,1.70
2023-07-03T03:08:02.235Z,1.40
2023-07-03T03:09:02.216Z,1.50
2023-07-03T03:10:02.199Z,1.60
2023-07-03T03:11:02.188Z,2.20
2023-07-03T03:12:02.189Z,1.10
2023-07-03T03:13:02.171Z,1.40
2023-07-03T03:14:02.152Z,1.70
2023-07-03T03:15:02.188Z,1.20
2023-07-03T03:16:02.148Z,2.00
2023-07-03T03:17:02.209Z,1.70
2023-07-03T03:18:02.123Z,1.50
2023-07-03T03:19:02.085Z,1.90
2023-07-03T03:20:02.077Z,1.50
2023-07-03T03:21:02.109Z,1.50
2023-07-03T03:22:02.094Z,1.70
2023-07-03T03:23:02.049Z,1.70
2023-07-03T03:24:02.033Z,1.70
2023-07-03T03:25:02.062Z,1.70
2023-07-03T03:26:02.028Z,1.40
2023-07-03T03:27:02.003Z,1.40
2023-07-03T03:28:01.992Z,1.50
2023-07-03T03:29:01.992Z,1.40
2023-07-03T03:30:01.971Z,1.50
2023-07-03T03:31:02.061Z,1.70
2023-07-03T03:32:01.955Z,1.10
2023-07-03T03:33:01.960Z,1.50
2023-07-03T03:34:01.952Z,1.90
2023-07-03T03:35:01.920Z,1.30
2023-07-03T03:36:01.922Z,1.60
2023-07-03T03:37:01.909Z,1.60
2023-07-03T03:38:01.873Z,1.40
2023-07-03T03:39:01.867Z,1.50
2023-07-03T03:40:01.906Z,1.50
2023-07-03T03:41:01.867Z,1.70
2023-07-03T03:42:01.841Z,1.80
2023-07-03T03:43:01.835Z,1.40
2023-07-03T03:44:01.816Z,1.90
2023-07-03T03:45:01.804Z,1.30
2023-07-03T03:46:01.823Z,1.80
2023-07-03T03:47:01.792Z,1.70
2023-07-03T03:48:01.811Z,1.70
2023-07-03T03:49:01.846Z,1.50
2023-07-03T03:50:01.870Z,2.10
2023-07-03T03:51:01.808Z,1.60
2023-07-03T03:52:01.768Z,2.00
2023-07-03T03:53:01.715Z,2.40
2023-07-03T03:54:01.707Z,1.40
2023-07-03T03:55:01.687Z,1.70
2023-07-03T03:56:01.676Z,1.60
2023-07-03T03:57:01.667Z,1.30
2023-07-03T03:58:01.682Z,1.60
2023-07-03T03:59:01.645Z,1.40
2023-07-03T04:00:01.659Z,1.70
2023-07-03T04:01:01.614Z,1.70
2023-07-03T04:02:01.670Z,1.90
2023-07-03T04:03:01.631Z,1.90
2023-07-03T04:04:01.640Z,1.40
2023-07-03T04:05:01.717Z,1.60
2023-07-03T04:06:01.572Z,1.70
2023-07-03T04:07:01.554Z,1.60
2023-07-03T04:08:01.545Z,1.50
2023-07-03T04:09:01.528Z,1.70
2023-07-03T04:10:01.547Z,2.00
2023-07-03T04:11:01.562Z,1.50
2023-07-03T04:12:01.494Z,2.10
2023-07-03T04:13:01.496Z,1.40
2023-07-03T04:14:01.559Z,1.70
2023-07-03T04:15:01.598Z,1.70
2023-07-03T04:16:02.295Z,1.50
2023-07-03T04:17:01.527Z,1.50
2023-07-03T04:18:01.549Z,1.60
2023-07-03T04:19:01.462Z,1.80
2023-07-03T04:20:01.432Z,1.60
2023-07-03T04:21:01.471Z,1.70
2023-07-03T04:22:01.446Z,1.70
2023-07-03T04:23:01.458Z,1.80
2023-07-03T04:24:01.647Z,1.80
2023-07-03T04:25:01.499Z,1.90
2023-07-03T04:26:01.404Z,1.80
2023-07-03T04:27:01.436Z,1.90
2023-07-03T04:28:01.408Z,1.80
2023-07-03T04:29:01.532Z,1.80
2023-07-03T04:30:01.451Z,1.50
2023-07-03T04:31:01.351Z,1.90
2023-07-03T04:32:01.421Z,1.30
2023-07-03T04:33:01.412Z,1.80
2023-07-03T04:34:01.310Z,1.60
2023-07-03T04:35:01.247Z,1.40
2023-07-03T04:36:01.467Z,1.60
2023-07-03T04:37:01.291Z,1.50
2023-07-03T04:38:01.267Z,1.60
2023-07-03T04:39:01.259Z,1.60
2023-07-03T04:40:01.254Z,1.90
2023-07-03T04:41:01.209Z,1.30
2023-07-03T04:42:01.405Z,2.10
2023-07-03T04:43:01.270Z,2.20
2023-07-03T04:44:01.225Z,2.10
2023-07-03T04:45:01.288Z,2.00
2023-07-03T04:46:01.405Z,1.90
2023-07-03T04:47:01.674Z,2.20
2023-07-03T04:48:01.129Z,1.90
2023-07-03T04:49:01.656Z,2.30
2023-07-03T04:50:01.181Z,2.00
2023-07-03T04:51:01.156Z,1.50
2023-07-03T04:52:01.184Z,1.80
2023-07-03T04:53:01.049Z,2.20
2023-07-03T04:54:01.065Z,2.40
2023-07-03T04:55:01.172Z,1.90
2023-07-03T04:56:01.037Z,1.40
2023-07-03T04:57:01.046Z,1.60
2023-07-03T04:58:01.122Z,2.20
2023-07-03T04:59:00.974Z,1.70
2023-07-03T05:00:01.096Z,1.80
2023-07-03T05:01:01.025Z,2.10
2023-07-03T05:02:01.116Z,1.60
2023-07-03T05:03:01.069Z,1.90
2023-07-03T05:04:01.055Z,1.80
2023-07-03T05:05:01.131Z,2.20
2023-07-03T05:06:01.073Z,1.50
2023-07-03T05:07:00.909Z,2.20
2023-07-03T05:08:00.930Z,2.10
2023-07-03T05:09:00.921Z,1.80
2023-07-03T05:10:00.889Z,1.70
2023-07-03T05:11:00.886Z,1.30
2023-07-03T05:12:00.873Z,2.00
2023-07-03T05:13:00.842Z,1.50
2023-07-03T05:14:00.959Z,2.10
2023-07-03T05:15:00.804Z,2.40
2023-07-03T05:16:00.901Z,1.60
2023-07-03T05:17:00.776Z,1.50
2023-07-03T05:18:00.958Z,2.10
2023-07-03T05:19:00.907Z,1.90
2023-07-03T05:20:00.938Z,1.60
2023-07-03T05:21:00.786Z,1.50
2023-07-03T05:22:00.745Z,2.00
2023-07-03T05:23:00.831Z,2.00
2023-07-03T05:24:00.767Z,2.30
2023-07-03T05:25:00.715Z,1.90
2023-07-03T05:26:00.682Z,1.90
2023-07-03T05:27:00.738Z,2.00
2023-07-03T05:28:00.672Z,1.50
2023-07-03T05:29:00.683Z,1.70
2023-07-03T05:30:00.765Z,2.40
2023-07-03T05:31:00.656Z,2.10
2023-07-03T05:32:00.689Z,1.80
2023-07-03T05:33:00.653Z,2.00
2023-07-03T05:34:00.590Z,1.90
2023-07-03T05:35:00.615Z,2.30
2023-07-03T05:36:00.628Z,2.10
2023-07-03T05:37:00.614Z,1.40
2023-07-03T05:38:00.604Z,2.00
2023-07-03T05:39:00.553Z,2.10
2023-07-03T05:40:00.528Z,1.60
2023-07-03T05:41:00.514Z,1.80
2023-07-03T05:42:00.529Z,1.60
2023-07-03T05:43:00.497Z,1.80
2023-07-03T05:44:00.469Z,2.20
2023-07-03T05:45:00.465Z,2.10
2023-07-03T05:46:00.472Z,2.10
2023-07-03T05:47:00.480Z,1.80
2023-07-03T05:48:00.441Z,2.00
2023-07-03T05:49:00.423Z,2.10
2023-07-03T05:50:00.437Z,2.00
2023-07-03T05:51:00.415Z,1.80
2023-07-03T05:52:00.417Z,1.70
2023-07-03T05:53:00.417Z,2.30
2023-07-03T05:54:00.367Z,2.20
2023-07-03T05:55:00.363Z,2.20
2023-07-03T05:56:00.462Z,1.90
2023-07-03T05:57:00.335Z,1.70
2023-07-03T05:58:00.331Z,1.80
2023-07-03T05:59:00.327Z,2.10
2023-07-03T06:00:00.318Z,1.90
2023-07-03T06:01:00.452Z,2.30
2023-07-03T06:02:00.274Z,1.90
2023-07-03T06:03:00.616Z,2.20
2023-07-03T06:04:00.321Z,1.80
2023-07-03T06:05:00.394Z,1.90
2023-07-03T06:06:00.250Z,2.40
2023-07-03T06:07:00.213Z,2.20
2023-07-03T06:08:00.221Z,2.10
2023-07-03T06:09:00.218Z,1.70
2023-07-03T06:10:00.222Z,1.70
2023-07-03T06:11:00.212Z,2.60
2023-07-03T06:12:00.201Z,2.20
2023-07-03T06:13:00.175Z,2.30
2023-07-03T06:14:00.141Z,1.80
2023-07-03T06:15:00.185Z,2.10
2023-07-03T06:16:00.116Z,2.00
2023-07-03T06:17:00.365Z,2.20
2023-07-03T06:18:00.152Z,2.20
2023-07-03T06:19:00.138Z,2.00
2023-07-03T06:20:00.119Z,2.10
2023-07-03T06:21:00.093Z,1.70
2023-07-03T06:22:00.104Z,1.90
2023-07-03T06:23:00.115Z,2.30
2023-07-03T06:24:01.713Z,2.30
2023-07-03T06:25:00.022Z,2.20
2023-07-03T06:26:00.062Z,2.50
2023-07-03T06:27:00.040Z,2.10
2023-07-03T06:28:00.087Z,2.30
2023-07-03T06:29:00.086Z,2.50
2023-07-03T06:29:59.975Z,2.20
2023-07-03T06:31:00.061Z,1.90
2023-07-03T06:31:59.960Z,2.20
2023-07-03T06:33:00.022Z,2.20
2023-07-03T06:33:59.907Z,1.80
2023-07-03T06:35:00.683Z,2.30
2023-07-03T06:35:59.928Z,1.50
2023-07-03T06:36:59.905Z,1.60
2023-07-03T06:37:59.876Z,2.50
2023-07-03T06:38:59.853Z,2.40
2023-07-03T06:39:59.847Z,2.20
2023-07-03T06:40:59.861Z,2.00
2023-07-03T06:41:59.840Z,2.10
2023-07-03T06:42:59.842Z,2.50
2023-07-03T06:43:59.804Z,2.30
2023-07-03T06:44:59.786Z,2.10
2023-07-03T06:45:59.802Z,1.70
2023-07-03T06:46:59.840Z,2.20
2023-07-03T06:47:59.816Z,2.60
2023-07-03T06:48:59.746Z,2.30
2023-07-03T06:49:59.744Z,2.60
2023-07-03T06:50:59.733Z,2.60
2023-07-03T06:51:59.711Z,1.80
2023-07-03T06:52:59.702Z,2.30
2023-07-03T06:53:59.723Z,2.10
2023-07-03T06:54:59.677Z,2.00
2023-07-03T06:55:59.668Z,2.10
2023-07-03T06:56:59.650Z,2.20
2023-07-03T06:57:59.664Z,2.20
2023-07-03T06:58:59.664Z,1.80
2023-07-03T06:59:59.642Z,2.40
2023-07-03T07:00:59.610Z,2.50
2023-07-03T07:01:59.680Z,2.00
2023-07-03T07:02:59.667Z,2.30
2023-07-03T07:04:00.607Z,2.30
2023-07-03T07:05:02.518Z,2.30
2023-07-03T07:05:59.848Z,1.70
2023-07-03T07:06:59.545Z,2.30
2023-07-03T07:07:59.529Z,2.50
2023-07-03T07:08:59.545Z,1.70
2023-07-03T07:09:59.522Z,2.30
2023-07-03T07:10:59.514Z,2.10
2023-07-03T07:11:59.500Z,1.90
2023-07-03T07:12:59.478Z,2.90
2023-07-03T07:13:59.504Z,2.10
2023-07-03T07:14:59.455Z,2.30
2023-07-03T07:15:59.446Z,2.20
2023-07-03T07:16:59.500Z,2.40
2023-07-03T07:17:59.507Z,1.80
2023-07-03T07:18:59.414Z,2.30
2023-07-03T07:19:59.419Z,2.10
2023-07-03T07:20:59.432Z,2.20
2023-07-03T07:21:59.384Z,2.30
2023-07-03T07:22:59.373Z,2.60
2023-07-03T07:23:59.357Z,2.10
2023-07-03T07:24:59.575Z,2.30
2023-07-03T07:25:59.332Z,1.80
2023-07-03T07:26:59.345Z,2.00
2023-07-03T07:27:59.320Z,2.00
2023-07-03T07:28:59.303Z,2.20
2023-07-03T07:29:59.297Z,2.20
2023-07-03T07:30:59.297Z,1.90
2023-07-03T07:31:59.269Z,2.10
2023-07-03T07:32:59.334Z,2.40
2023-07-03T07:33:59.256Z,1.80
2023-07-03T07:34:59.233Z,2.00
2023-07-03T07:35:59.223Z,2.10
2023-07-03T07:36:59.266Z,1.90
2023-07-03T07:37:59.201Z,2.00
2023-07-03T07:38:59.195Z,2.40
2023-07-03T07:39:59.201Z,2.20
2023-07-03T07:40:59.174Z,1.90
2023-07-03T07:41:59.158Z,1.80
2023-07-03T07:42:59.177Z,2.20
2023-07-03T07:43:59.157Z,2.20
2023-07-03T07:44:59.134Z,2.10
2023-07-03T07:45:59.150Z,2.20
2023-07-03T07:46:59.121Z,2.40
2023-07-03T07:47:59.113Z,2.00
2023-07-03T07:48:59.159Z,1.70
2023-07-03T07:49:59.071Z,2.70
2023-07-03T07:50:59.065Z,2.30
2023-07-03T07:51:59.047Z,1.60
2023-07-03T07:52:59.086Z,1.80
2023-07-03T07:53:59.051Z,2.20
2023-07-03T07:54:59.027Z,1.70
2023-07-03T07:55:59.041Z,1.90
2023-07-03T07:56:59.009Z,2.80
2023-07-03T07:57:58.989Z,2.10
2023-07-03T07:58:58.974Z,2.40
2023-07-03T07:59:58.963Z,1.90
2023-07-03T08:00:59.155Z,1.80
2023-07-03T08:01:59.015Z,1.90
2023-07-03T08:02:58.972Z,1.80
2023-07-03T08:03:58.976Z,2.40
2023-07-03T08:04:59.018Z,2.30
2023-07-03T08:05:58.903Z,2.30
2023-07-03T08:06:58.875Z,2.10
2023-07-03T08:07:58.884Z,2.00
2023-07-03T08:08:58.891Z,2.00
2023-07-03T08:09:58.867Z,1.60
2023-07-03T08:10:58.833Z,2.20
2023-07-03T08:11:58.844Z,2.20
2023-07-03T08:12:58.828Z,2.20
2023-07-03T08:13:58.837Z,1.70
2023-07-03T08:14:58.799Z,2.60
2023-07-03T08:15:58.797Z,1.80
2023-07-03T08:16:58.796Z,1.90
2023-07-03T08:17:58.789Z,2.10
2023-07-03T08:18:58.771Z,2.30
2023-07-03T08:19:58.762Z,2.20
2023-07-03T08:20:58.732Z,2.10
2023-07-03T08:21:58.716Z,2.20
2023-07-03T08:22:58.698Z,2.50
2023-07-03T08:23:58.702Z,1.80
2023-07-03T08:24:58.714Z,2.10
2023-07-03T08:25:58.671Z,2.50
2023-07-03T08:26:58.661Z,2.30
2023-07-03T08:27:58.650Z,2.40
2023-07-03T08:28:58.641Z,2.20
2023-07-03T08:29:58.625Z,2.40
2023-07-03T08:30:58.673Z,2.30
2023-07-03T08:31:58.655Z,2.10
2023-07-03T08:32:58.658Z,2.60
2023-07-03T08:33:58.619Z,2.80
2023-07-03T08:37:58.568Z,2.90
2023-07-03T08:38:58.536Z,2.40
2023-07-03T08:39:58.515Z,2.20
2023-07-03T08:40:58.502Z,2.50
2023-07-03T08:41:58.525Z,2.10
2023-07-03T08:42:58.488Z,2.30
2023-07-03T08:43:58.488Z,2.40
2023-07-03T08:44:59.350Z,2.00
2023-07-03T08:45:58.464Z,2.50
2023-07-03T08:47:10.720Z,2.50
2023-07-03T08:47:58.461Z,1.90
2023-07-03T08:48:58.410Z,1.60
2023-07-03T08:49:58.447Z,2.30
2023-07-03T08:50:58.512Z,1.80
2023-07-03T08:51:58.379Z,1.50
2023-07-03T08:52:58.401Z,2.20
2023-07-03T08:53:58.361Z,2.30
2023-07-03T08:54:58.340Z,1.70
2023-07-03T08:55:58.332Z,1.70
2023-07-03T08:56:58.320Z,2.00
2023-07-03T08:57:58.328Z,1.60
2023-07-03T08:58:58.324Z,1.60
2023-07-03T08:59:58.294Z,2.20
2023-07-03T09:00:59.073Z,1.80
2023-07-03T09:01:58.283Z,1.50
2023-07-03T09:02:58.388Z,1.80
2023-07-03T09:03:58.467Z,1.40
2023-07-03T09:04:58.274Z,1.50
2023-07-03T09:05:58.227Z,1.40
2023-07-03T09:06:58.227Z,1.70
2023-07-03T09:07:58.204Z,1.40
2023-07-03T09:08:58.188Z,1.60
2023-07-03T09:09:58.201Z,1.60
2023-07-03T09:10:58.165Z,1.80
2023-07-03T09:11:58.153Z,1.50
2023-07-03T09:12:58.156Z,1.70
2023-07-03T09:13:58.133Z,1.60
2023-07-03T09:14:58.124Z,1.60
2023-07-03T09:15:58.134Z,1.90
2023-07-03T09:16:58.118Z,1.40
2023-07-03T09:17:58.114Z,2.00
2023-07-03T09:18:58.075Z,1.40
2023-07-03T09:19:58.109Z,1.10
2023-07-03T09:20:58.859Z,1.20
2023-07-03T09:21:58.074Z,1.50
2023-07-03T09:22:58.043Z,1.40
2023-07-03T09:23:58.027Z,1.30
2023-07-03T09:24:58.009Z,1.20
2023-07-03T09:26:02.322Z,1.70
2023-07-03T09:26:58.563Z,1.40
2023-07-03T09:27:58.029Z,1.30
2023-07-03T09:28:57.960Z,1.20
2023-07-03T09:29:57.960Z,1.60
2023-07-03T09:30:58.214Z,1.10
2023-07-03T09:31:58.534Z,1.30
2023-07-03T09:32:57.958Z,1.50
2023-07-03T09:33:57.909Z,1.60
2023-07-03T09:34:57.896Z,1.80
2023-07-03T09:35:58.896Z,1.00
2023-07-03T09:36:58.576Z,1.30
2023-07-03T09:37:57.882Z,1.30
2023-07-03T09:38:57.902Z,1.40
2023-07-03T09:39:57.934Z,1.20
2023-07-03T09:40:59.887Z,1.20
2023-07-03T09:41:58.063Z,1.40
2023-07-03T09:42:57.845Z,1.30
2023-07-03T09:43:57.822Z,1.70
2023-07-03T09:44:57.800Z,1.60
2023-07-03T09:45:57.782Z,1.40
2023-07-03T09:46:57.850Z,1.80
2023-07-03T09:47:57.842Z,1.30
2023-07-03T09:48:58.143Z,1.40
2023-07-03T09:49:57.835Z,1.30
2023-07-03T09:51:07.371Z,1.00
2023-07-03T09:51:57.749Z,1.30
2023-07-03T09:53:07.532Z,1.50
2023-07-03T09:53:57.696Z,1.40
2023-07-03T09:54:57.680Z,0.80
2023-07-03T09:55:57.681Z,1.20
2023-07-03T09:56:57.719Z,1.70
2023-07-03T09:57:57.653Z,1.30
2023-07-03T09:58:57.656Z,1.30
2023-07-03T09:59:57.635Z,1.40
2023-07-03T10:00:58.095Z,1.10
2023-07-03T10:03:58.085Z,1.40
2023-07-03T10:06:57.737Z,1.20
2023-07-03T10:07:57.815Z,1.30
2023-07-03T10:11:57.577Z,1.50
2023-07-03T10:12:57.577Z,1.40
2023-07-03T10:13:57.471Z,1.30
2023-07-03T10:14:57.465Z,1.60
2023-07-03T10:15:57.443Z,1.30
2023-07-03T10:16:57.479Z,1.20
2023-07-03T10:17:57.458Z,1.50
2023-07-03T10:18:57.421Z,1.60
2023-07-03T10:19:57.400Z,1.30
2023-07-03T10:20:57.393Z,1.30
2023-07-03T10:21:57.374Z,1.10
2023-07-03T10:22:57.394Z,1.10
2023-07-03T10:23:57.350Z,1.30
2023-07-03T10:24:57.352Z,1.00
2023-07-03T10:25:57.331Z,1.30
2023-07-03T10:26:57.338Z,1.30
2023-07-03T10:27:57.342Z,1.30
2023-07-03T10:28:57.345Z,1.10
2023-07-03T10:29:57.286Z,1.30
2023-07-03T10:30:57.287Z,1.50
2023-07-03T10:31:57.345Z,1.30
2023-07-03T10:32:57.273Z,2.00
2023-07-03T10:33:57.263Z,1.20
2023-07-03T10:34:57.248Z,1.80
2023-07-03T10:35:57.232Z,1.40
2023-07-03T10:36:57.216Z,1.30
2023-07-03T10:37:57.199Z,1.00
2023-07-03T10:38:57.219Z,1.30
2023-07-03T10:39:57.179Z,1.30
2023-07-03T10:40:57.175Z,1.40
2023-07-03T10:41:57.160Z,1.50
2023-07-03T10:42:57.143Z,1.70
2023-07-03T10:43:57.156Z,1.40
2023-07-03T10:44:57.122Z,1.40
2023-07-03T10:45:57.123Z,0.80
2023-07-03T10:46:57.100Z,1.00
2023-07-03T10:47:57.215Z,1.00
2023-07-03T10:48:57.113Z,1.10
2023-07-03T10:49:57.066Z,1.10
2023-07-03T10:50:57.082Z,1.40
2023-07-03T10:51:57.090Z,1.50
2023-07-03T10:52:57.036Z,1.50
2023-07-03T10:53:57.024Z,1.20
2023-07-03T10:54:57.021Z,1.60
2023-07-03T10:55:57.005Z,0.90
2023-07-03T10:56:57.010Z,1.40
2023-07-03T10:57:56.978Z,1.50
2023-07-03T10:58:56.981Z,1.00
2023-07-03T10:59:56.971Z,1.10
2023-07-03T11:00:56.981Z,1.40
2023-07-03T11:01:56.953Z,1.10
2023-07-03T11:02:56.959Z,1.30
2023-07-03T11:04:15.931Z,1.30
2023-07-03T11:04:56.928Z,1.70
2023-07-03T11:05:56.908Z,1.40
2023-07-03T11:07:02.934Z,1.10
2023-07-03T11:07:56.877Z,1.40
2023-07-03T11:08:56.874Z,1.60
2023-07-03T11:09:56.854Z,1.20
2023-07-03T11:10:56.837Z,1.60
2023-07-03T11:11:56.851Z,1.10
2023-07-03T11:12:56.820Z,1.50
2023-07-03T11:13:56.910Z,1.50
2023-07-03T11:14:56.791Z,1.80
2023-07-03T11:15:56.812Z,1.70
2023-07-03T11:16:56.797Z,1.60
2023-07-03T11:19:56.745Z,1.00
2023-07-03T11:22:56.736Z,1.30
2023-07-03T11:23:57.605Z,1.60
2023-07-03T11:24:56.695Z,1.50
2023-07-03T11:27:56.647Z,1.90
2023-07-03T11:28:56.661Z,1.10
2023-07-03T11:29:56.646Z,1.50
2023-07-03T11:30:56.663Z,1.50
2023-07-03T11:31:56.645Z,1.30
2023-07-03T11:32:56.614Z,1.40
2023-07-03T11:35:56.594Z,1.40
2023-07-03T11:37:03.223Z,1.70
2023-07-03T11:39:56.562Z,1.90
2023-07-03T11:40:56.713Z,1.30
2023-07-03T11:43:56.478Z,1.70
2023-07-03T11:44:56.490Z,2.20
2023-07-03T11:45:56.470Z,1.70
2023-07-03T11:46:56.555Z,1.70
2023-07-03T11:47:56.473Z,1.60
2023-07-03T11:48:56.425Z,1.40
2023-07-03T11:49:56.406Z,1.70
2023-07-03T11:50:56.410Z,1.60
2023-07-03T11:51:56.408Z,1.50
2023-07-03T11:52:56.374Z,1.70
2023-07-03T11:53:56.364Z,1.70
2023-07-03T11:54:56.354Z,1.60
2023-07-03T11:55:56.343Z,1.40
2023-07-03T11:56:56.374Z,1.80
2023-07-03T11:58:14.285Z,1.70
2023-07-03T11:58:58.671Z,1.50
2023-07-03T11:59:56.301Z,1.60
2023-07-03T12:00:56.383Z,1.50
2023-07-03T12:01:56.306Z,1.70
2023-07-03T12:02:56.360Z,1.40
2023-07-03T12:03:56.421Z,1.50
2023-07-03T12:04:56.244Z,1.80
2023-07-03T12:05:56.245Z,1.60
2023-07-03T12:06:56.260Z,1.50
2023-07-03T12:07:56.244Z,1.60
2023-07-03T12:08:56.215Z,1.40
2023-07-03T12:09:56.195Z,1.50
2023-07-03T12:10:57.098Z,1.80
2023-07-03T12:11:56.169Z,1.80
2023-07-03T12:12:56.217Z,1.50
2023-07-03T12:13:56.387Z,2.00
2023-07-03T12:14:56.192Z,1.70
2023-07-03T12:15:56.140Z,1.70
2023-07-03T12:16:56.165Z,1.60
2023-07-03T12:17:56.163Z,1.70
2023-07-03T12:18:56.100Z,1.70
2023-07-03T12:19:56.086Z,1.90
2023-07-03T12:20:56.137Z,1.70
2023-07-03T12:21:56.078Z,2.10
2023-07-03T12:22:56.083Z,1.50
2023-07-03T12:23:56.044Z,1.50
2023-07-03T12:24:56.038Z,1.70
2023-07-03T12:25:56.019Z,1.40
2023-07-03T12:26:56.015Z,1.80
2023-07-03T12:27:56.021Z,2.10
2023-07-03T12:28:55.994Z,1.40
2023-07-03T12:29:55.989Z,1.40
2023-07-03T12:30:56.001Z,1.60
2023-07-03T12:31:55.949Z,1.50
2023-07-03T12:32:55.974Z,1.90
2023-07-03T12:33:55.935Z,1.30
2023-07-03T12:34:55.935Z,1.90
2023-07-03T12:35:55.912Z,1.50
2023-07-03T12:37:02.092Z,1.50
2023-07-03T12:37:55.904Z,1.50
2023-07-03T12:38:55.875Z,1.10
2023-07-03T12:39:55.866Z,1.30
2023-07-03T12:40:55.856Z,1.60
2023-07-03T12:41:55.836Z,1.50
2023-07-03T12:42:55.861Z,1.40
2023-07-03T12:44:07.439Z,1.20
2023-07-03T12:44:55.807Z,1.40
2023-07-03T12:45:55.826Z,1.40
2023-07-03T12:46:55.843Z,1.10
2023-07-03T12:47:55.842Z,1.60
2023-07-03T12:48:55.767Z,1.30
2023-07-03T12:49:55.747Z,1.40
2023-07-03T12:50:55.775Z,1.70
2023-07-03T12:51:55.756Z,1.60
2023-07-03T12:52:55.722Z,1.20
2023-07-03T12:53:55.723Z,1.50
2023-07-03T12:55:09.440Z,1.60
2023-07-03T12:55:55.691Z,1.50
2023-07-03T12:56:55.709Z,1.80
2023-07-03T12:57:55.658Z,1.50
2023-07-03T12:58:55.670Z,1.90
2023-07-03T12:59:55.665Z,1.20
2023-07-03T13:00:55.717Z,1.20
2023-07-03T13:01:55.617Z,1.80
2023-07-03T13:02:55.667Z,1.40
2023-07-03T13:03:55.597Z,1.50
2023-07-03T13:04:55.680Z,1.30
2023-07-03T13:05:56.060Z,1.70
2023-07-03T13:06:55.570Z,1.50
2023-07-03T13:07:55.551Z,1.50
2023-07-03T13:08:55.548Z,1.70
2023-07-03T13:09:55.560Z,1.70
2023-07-03T13:10:57.417Z,1.30
2023-07-03T13:11:55.508Z,1.60
2023-07-03T13:12:55.491Z,1.50
2023-07-03T13:13:55.520Z,1.40
2023-07-03T13:14:55.493Z,1.60
2023-07-03T13:15:55.467Z,1.50
2023-07-03T13:16:55.481Z,1.70
2023-07-03T13:17:55.487Z,1.30
2023-07-03T13:18:55.432Z,1.80
2023-07-03T13:19:55.430Z,1.60
2023-07-03T13:20:55.442Z,1.10
2023-07-03T13:21:55.413Z,1.40
2023-07-03T13:22:55.395Z,1.60
2023-07-03T13:23:55.392Z,1.40
2023-07-03T13:24:55.400Z,1.40
2023-07-03T13:25:55.373Z,1.40
2023-07-03T13:26:55.370Z,1.40
2023-07-03T13:27:55.356Z,1.30
2023-07-03T13:28:55.329Z,1.30
2023-07-03T13:29:55.308Z,1.50
2023-07-03T13:30:55.381Z,1.40
2023-07-03T13:31:55.285Z,1.80
2023-07-03T13:32:55.302Z,1.40
2023-07-03T13:33:55.264Z,1.50
2023-07-03T13:34:55.266Z,1.30
2023-07-03T13:35:55.264Z,1.50
2023-07-03T13:36:55.235Z,1.50
2023-07-03T13:37:55.222Z,1.20
2023-07-03T13:38:55.217Z,1.90
2023-07-03T13:40:01.215Z,1.50